Time;durP1;ratioP1;P1;durP2;ratioP2;P2;SDS_P1;SDS_P2;PMS_P1;PMS_P2;Temp;Humidity;BMP_temperature;BMP_pressure;BME280_temperature;BME280_humidity;BME280_pressure;Samples;Min_cycle;Max_cycle;Signal;HPM_P1;HPM_P2
2024/01/20 00:01:32;;;;;;;20.33;15.73;;;;;;;;;;5134918;28;20380;-77
2024/01/20 00:03:58;;;;;;;19.85;16.52;;;;;;;;;;5134577;28;20103;-77
2024/01/20 00:06:24;;;;;;;22.58;17.33;;;;;;;;;;5116368;28;20039;-78
2024/01/20 00:08:50;;;;;;;22.45;16.33;;;;;;;;;;5116233;28;20051;-77
2024/01/20 00:11:16;;;;;;;23.95;16.60;;;;;;;;;;5134518;28;20051;-77
2024/01/20 00:13:42;;;;;;;20.52;15.88;;;;;;;;;;5134730;28;20103;-77
2024/01/20 00:16:08;;;;;;;20.00;16.13;;;;;;;;;;5134335;28;20047;-78
2024/01/20 00:18:34;;;;;;;23.65;17.30;;;;;;;;;;5134443;28;20086;-77
2024/01/20 00:21:00;;;;;;;20.58;16.17;;;;;;;;;;5133987;28;20103;-78
2024/01/20 00:23:26;;;;;;;21.45;17.02;;;;;;;;;;5116392;28;20059;-77
2024/01/20 00:25:52;;;;;;;19.67;15.70;;;;;;;;;;5134017;28;20053;-78
2024/01/20 00:28:18;;;;;;;22.30;16.70;;;;;;;;;;5134344;28;20039;-78
2024/01/20 00:30:44;;;;;;;26.65;18.63;;;;;;;;;;5137864;27;20047;-78
2024/01/20 00:33:10;;;;;;;25.15;18.00;;;;;;;;;;5138482;27;20047;-78
2024/01/20 00:35:39;;;;;;;23.65;18.30;;;;;;;;;;5138185;27;20047;-78
2024/01/20 00:38:05;;;;;;;21.83;18.17;;;;;;;;;;5120075;27;20035;-77
2024/01/20 00:40:31;;;;;;;21.77;19.02;;;;;;;;;;5138060;27;20043;-78
2024/01/20 00:42:57;;;;;;;25.10;18.77;;;;;;;;;;5119782;27;20085;-78
2024/01/20 00:45:23;;;;;;;27.73;18.10;;;;;;;;;;5138181;27;20085;-77
2024/01/20 00:47:49;;;;;;;23.83;16.33;;;;;;;;;;5119892;27;20047;-78
2024/01/20 00:50:15;;;;;;;22.58;18.17;;;;;;;;;;5137695;27;20093;-78
2024/01/20 00:52:41;;;;;;;24.10;18.75;;;;;;;;;;5138074;27;20050;-78
2024/01/20 00:55:07;;;;;;;25.38;18.83;;;;;;;;;;5119620;27;20491;-78
2024/01/20 00:57:34;;;;;;;31.50;19.05;;;;;;;;;;5119659;27;20055;-78
2024/01/20 01:00:00;;;;;;;28.38;18.20;;;;;;;;;;5119554;27;20099;-78
2024/01/20 01:02:26;;;;;;;23.58;18.17;;;;;;;;;;5137744;27;20047;-78
2024/01/20 01:04:52;;;;;;;26.75;17.75;;;;;;;;;;5137861;27;20047;-78
2024/01/20 01:07:18;;;;;;;27.63;18.83;;;;;;;;;;5120426;27;20039;-78
2024/01/20 01:09:44;;;;;;;27.80;19.38;;;;;;;;;;5137735;27;20043;-78
2024/01/20 01:12:10;;;;;;;25.55;17.50;;;;;;;;;;5137462;27;20092;-79
2024/01/20 01:14:37;;;;;;;29.02;20.02;;;;;;;;;;5119531;27;20479;-78
2024/01/20 01:17:03;;;;;;;30.00;18.55;;;;;;;;;;5137718;27;20058;-78
2024/01/20 01:19:29;;;;;;;21.50;18.00;;;;;;;;;;5119155;27;20047;-78
2024/01/20 01:21:55;;;;;;;25.77;19.52;;;;;;;;;;5136790;27;20134;-78
2024/01/20 01:24:21;;;;;;;22.65;17.73;;;;;;;;;;5137342;27;20047;-78
2024/01/20 01:26:47;;;;;;;26.23;19.33;;;;;;;;;;5137364;27;20082;-78
2024/01/20 01:29:13;;;;;;;21.10;18.67;;;;;;;;;;5102113;27;20509;-78
2024/01/20 01:31:39;;;;;;;24.13;19.63;;;;;;;;;;5119280;27;20050;-78
2024/01/20 01:34:05;;;;;;;27.10;19.60;;;;;;;;;;5137231;27;20054;-78
2024/01/20 01:36:31;;;;;;;30.33;21.08;;;;;;;;;;5119127;27;20133;-78
2024/01/20 01:38:57;;;;;;;24.02;19.83;;;;;;;;;;5101726;27;20039;-78
2024/01/20 01:41:23;;;;;;;25.50;20.65;;;;;;;;;;5135966;27;20499;-78
2024/01/20 01:43:49;;;;;;;27.23;20.10;;;;;;;;;;5118947;27;20047;-78
2024/01/20 01:46:15;;;;;;;29.05;21.52;;;;;;;;;;5136870;27;20047;-79
2024/01/20 01:48:42;;;;;;;32.28;22.20;;;;;;;;;;5118163;27;20057;-78
2024/01/20 01:51:08;;;;;;;29.35;22.13;;;;;;;;;;5136682;27;20079;-79
2024/01/20 01:53:34;;;;;;;27.58;21.35;;;;;;;;;;5118839;27;20047;-78
2024/01/20 01:56:01;;;;;;;28.38;21.45;;;;;;;;;;5136626;27;20514;-79
2024/01/20 01:58:28;;;;;;;27.58;21.67;;;;;;;;;;5118420;27;20122;-78
2024/01/20 02:00:54;;;;;;;27.95;21.80;;;;;;;;;;5118643;27;20047;-78
2024/01/20 02:03:20;;;;;;;25.58;20.92;;;;;;;;;;5118289;27;20039;-78
2024/01/20 02:05:46;;;;;;;26.38;21.15;;;;;;;;;;5118557;27;20039;-79
2024/01/20 02:08:12;;;;;;;28.80;22.02;;;;;;;;;;5136399;27;20103;-79
2024/01/20 02:10:39;;;;;;;33.78;23.77;;;;;;;;;;5136571;27;20051;-78
2024/01/20 02:13:05;;;;;;;28.13;23.52;;;;;;;;;;5136536;27;20043;-78
2024/01/20 02:15:32;;;;;;;32.78;23.65;;;;;;;;;;5118813;27;20085;-79
2024/01/20 02:17:58;;;;;;;30.98;23.60;;;;;;;;;;5136198;27;20043;-78
2024/01/20 02:20:24;;;;;;;29.42;23.63;;;;;;;;;;5117658;27;20050;-79
2024/01/20 02:22:51;;;;;;;27.38;21.88;;;;;;;;;;5118515;27;20047;-78
2024/01/20 02:25:17;;;;;;;27.20;22.20;;;;;;;;;;5117872;27;20039;-78
2024/01/20 02:27:43;;;;;;;29.92;23.17;;;;;;;;;;5136316;27;20043;-78
2024/01/20 02:30:09;;;;;;;33.33;24.13;;;;;;;;;;5118098;27;20043;-78
2024/01/20 02:32:35;;;;;;;31.52;23.73;;;;;;;;;;5136348;27;20077;-78
2024/01/20 02:35:01;;;;;;;31.73;24.00;;;;;;;;;;5136418;27;20047;-78
2024/01/20 02:37:27;;;;;;;29.55;25.08;;;;;;;;;;5117664;27;20498;-78
2024/01/20 02:39:53;;;;;;;28.70;22.63;;;;;;;;;;5117679;27;20096;-79
2024/01/20 02:42:20;;;;;;;31.20;23.70;;;;;;;;;;5135634;27;20495;-79
2024/01/20 02:44:46;;;;;;;36.85;26.10;;;;;;;;;;5117601;27;20046;-79
2024/01/20 02:47:12;;;;;;;34.08;25.00;;;;;;;;;;5135898;27;20206;-78
2024/01/20 02:49:38;;;;;;;33.80;26.10;;;;;;;;;;5135708;27;20129;-78
2024/01/20 02:52:04;;;;;;;33.35;24.20;;;;;;;;;;5116806;27;20049;-79
2024/01/20 02:54:30;;;;;;;32.70;24.40;;;;;;;;;;5135800;27;20151;-78
2024/01/20 02:56:56;;;;;;;32.63;24.15;;;;;;;;;;5135512;27;20059;-79
2024/01/20 02:59:22;;;;;;;33.40;25.48;;;;;;;;;;5117254;27;20043;-78
2024/01/20 03:01:48;;;;;;;31.55;23.02;;;;;;;;;;5135157;27;20050;-79
2024/01/20 03:04:15;;;;;;;35.28;25.85;;;;;;;;;;5135701;27;20104;-79
2024/01/20 03:06:41;;;;;;;29.27;23.15;;;;;;;;;;5135426;27;20043;-78
2024/01/20 03:09:07;;;;;;;34.30;23.88;;;;;;;;;;5135141;27;20042;-79
2024/01/20 03:11:35;;;;;;;34.90;25.52;;;;;;;;;;5117233;27;20043;-78
2024/01/20 03:14:01;;;;;;;34.35;25.73;;;;;;;;;;5117205;27;20051;-78
2024/01/20 03:16:27;;;;;;;36.13;26.23;;;;;;;;;;5135351;27;20047;-78
2024/01/20 03:18:53;;;;;;;37.83;26.48;;;;;;;;;;5111230;28;20123;-79
2024/01/20 03:21:19;;;;;;;36.85;25.40;;;;;;;;;;5113311;28;20048;-79
2024/01/20 03:23:45;;;;;;;40.10;26.90;;;;;;;;;;5095833;28;20395;-79
2024/01/20 03:26:11;;;;;;;42.08;27.35;;;;;;;;;;5114531;28;20079;-78
2024/01/20 03:28:39;;;;;;;38.55;26.45;;;;;;;;;;5096590;28;20062;-78
2024/01/20 03:31:05;;;;;;;37.83;26.45;;;;;;;;;;5096547;28;20055;-79
2024/01/20 03:33:31;;;;;;;38.88;25.90;;;;;;;;;;5096329;28;20050;-79
2024/01/20 03:35:57;;;;;;;40.70;26.25;;;;;;;;;;5079562;28;20458;-78
2024/01/20 03:38:23;;;;;;;42.50;27.98;;;;;;;;;;5114326;28;20391;-79
2024/01/20 03:40:49;;;;;;;40.28;27.42;;;;;;;;;;5096666;28;20417;-79
2024/01/20 03:43:15;;;;;;;37.42;27.52;;;;;;;;;;5096468;28;20428;-78
2024/01/20 03:45:42;;;;;;;41.88;27.27;;;;;;;;;;5114274;28;20057;-78
2024/01/20 03:48:08;;;;;;;39.88;26.58;;;;;;;;;;5114258;28;20043;-78
2024/01/20 03:50:34;;;;;;;41.15;27.48;;;;;;;;;;5113853;28;20054;-79
2024/01/20 03:53:00;;;;;;;45.25;27.10;;;;;;;;;;5114223;28;20075;-78
2024/01/20 03:55:27;;;;;;;48.10;28.42;;;;;;;;;;5113944;28;20060;-79
2024/01/20 03:57:53;;;;;;;46.67;27.30;;;;;;;;;;5095496;28;20519;-79
2024/01/20 04:00:19;;;;;;;47.40;28.95;;;;;;;;;;5096347;28;20090;-78
2024/01/20 04:02:45;;;;;;;49.35;28.98;;;;;;;;;;5113865;28;20051;-79
2024/01/20 04:05:11;;;;;;;46.53;30.15;;;;;;;;;;5101100;28;20484;-79
2024/01/20 04:07:38;;;;;;;47.17;29.08;;;;;;;;;;5102824;28;20399;-79
2024/01/20 04:10:04;;;;;;;49.05;29.98;;;;;;;;;;5102786;28;20474;-78
2024/01/20 04:12:30;;;;;;;49.05;29.83;;;;;;;;;;5120581;28;20479;-79
2024/01/20 04:14:56;;;;;;;52.05;31.45;;;;;;;;;;5121440;28;20406;-79
2024/01/20 04:17:22;;;;;;;49.42;29.15;;;;;;;;;;5102648;28;20051;-79
2024/01/20 04:19:48;;;;;;;51.65;29.90;;;;;;;;;;5120627;28;20083;-78
2024/01/20 04:22:14;;;;;;;47.85;29.63;;;;;;;;;;5101969;28;20044;-79
2024/01/20 04:24:40;;;;;;;49.85;30.48;;;;;;;;;;5120663;28;20040;-78
2024/01/20 04:27:06;;;;;;;48.83;30.50;;;;;;;;;;5121445;28;20409;-78
2024/01/20 04:29:32;;;;;;;53.00;30.80;;;;;;;;;;5102568;28;20079;-78
2024/01/20 04:31:59;;;;;;;50.90;29.67;;;;;;;;;;5102319;28;20072;-78
2024/01/20 04:34:25;;;;;;;53.70;32.38;;;;;;;;;;5102773;28;20050;-78
2024/01/20 04:36:51;;;;;;;55.95;31.30;;;;;;;;;;5102630;28;20083;-78
2024/01/20 04:39:17;;;;;;;50.80;31.45;;;;;;;;;;5120467;28;20047;-78
2024/01/20 04:41:43;;;;;;;53.17;32.80;;;;;;;;;;5120427;28;20047;-79
2024/01/20 04:44:09;;;;;;;52.30;30.17;;;;;;;;;;5102214;28;20089;-78
2024/01/20 04:46:35;;;;;;;57.92;31.98;;;;;;;;;;5102360;28;20082;-78
2024/01/20 04:49:01;;;;;;;56.45;32.08;;;;;;;;;;5120369;28;20044;-79
2024/01/20 04:51:27;;;;;;;55.38;31.90;;;;;;;;;;5120040;28;20387;-79
2024/01/20 04:53:53;;;;;;;53.58;32.30;;;;;;;;;;5120454;28;20448;-79
2024/01/20 04:56:22;;;;;;;55.33;30.17;;;;;;;;;;5102009;28;20482;-78
2024/01/20 04:58:51;;;;;;;53.20;30.88;;;;;;;;;;5120373;28;20044;-78
2024/01/20 05:01:17;;;;;;;56.63;31.92;;;;;;;;;;5085473;28;20055;-78
2024/01/20 05:03:44;;;;;;;51.47;30.65;;;;;;;;;;5102415;28;20124;-78
2024/01/20 05:06:10;;;;;;;50.83;29.80;;;;;;;;;;5102183;28;20083;-78
2024/01/20 05:08:36;;;;;;;55.47;28.77;;;;;;;;;;5120280;28;20043;-78
2024/01/20 05:11:02;;;;;;;48.85;29.10;;;;;;;;;;5120270;28;20043;-78
2024/01/20 05:13:28;;;;;;;55.03;31.05;;;;;;;;;;5101946;28;20059;-79
2024/01/20 05:15:54;;;;;;;59.97;32.22;;;;;;;;;;5117501;28;20074;-78
2024/01/20 05:18:21;;;;;;;57.60;33.33;;;;;;;;;;5115898;28;20100;-79
2024/01/20 05:20:47;;;;;;;57.28;30.73;;;;;;;;;;5116573;28;20047;-79
2024/01/20 05:23:13;;;;;;;56.15;32.15;;;;;;;;;;5116952;28;20051;-79
2024/01/20 05:25:39;;;;;;;49.55;27.63;;;;;;;;;;5098755;28;20044;-79
2024/01/20 05:28:05;;;;;;;53.42;30.02;;;;;;;;;;5098808;28;20356;-78
2024/01/20 05:30:32;;;;;;;50.28;29.42;;;;;;;;;;5116851;28;20047;-79
2024/01/20 05:32:58;;;;;;;51.63;29.20;;;;;;;;;;5116518;28;20050;-79
2024/01/20 05:35:24;;;;;;;47.97;28.92;;;;;;;;;;5117092;28;20116;-79
2024/01/20 05:37:50;;;;;;;50.42;29.23;;;;;;;;;;5081714;28;20049;-78
2024/01/20 05:40:16;;;;;;;52.40;29.27;;;;;;;;;;5081803;28;20091;-78
2024/01/20 05:42:42;;;;;;;50.38;29.63;;;;;;;;;;5116368;28;20396;-78
2024/01/20 05:45:09;;;;;;;51.90;28.23;;;;;;;;;;5116747;28;20044;-78
2024/01/20 05:47:38;;;;;;;50.80;27.92;;;;;;;;;;5116428;28;20082;-78
2024/01/20 05:50:05;;;;;;;52.72;28.40;;;;;;;;;;5116326;28;20051;-79
2024/01/20 05:52:31;;;;;;;46.42;27.15;;;;;;;;;;5115894;28;20048;-79
2024/01/20 05:54:57;;;;;;;47.38;25.98;;;;;;;;;;5098010;28;20062;-78
2024/01/20 05:57:23;;;;;;;54.22;28.77;;;;;;;;;;5116186;28;20060;-78
2024/01/20 05:59:50;;;;;;;47.88;25.60;;;;;;;;;;5116218;28;20140;-78
2024/01/20 06:02:16;;;;;;;50.22;29.33;;;;;;;;;;5097934;28;20058;-78
2024/01/20 06:04:42;;;;;;;47.75;28.27;;;;;;;;;;5097933;28;20043;-78
2024/01/20 06:07:08;;;;;;;44.60;26.30;;;;;;;;;;5098155;28;20040;-78
2024/01/20 06:09:34;;;;;;;43.95;27.00;;;;;;;;;;5115997;28;20044;-78
2024/01/20 06:12:00;;;;;;;47.13;24.90;;;;;;;;;;5097975;28;20044;-78
2024/01/20 06:14:26;;;;;;;44.10;25.20;;;;;;;;;;5081198;28;20058;-78
2024/01/20 06:16:52;;;;;;;45.88;24.90;;;;;;;;;;5098051;28;20073;-78
2024/01/20 06:19:18;;;;;;;42.00;25.92;;;;;;;;;;5115742;28;20046;-78
2024/01/20 06:21:44;;;;;;;45.42;25.25;;;;;;;;;;5115388;28;20130;-79
2024/01/20 06:24:12;;;;;;;43.22;25.90;;;;;;;;;;5097753;28;20048;-78
2024/01/20 06:26:38;;;;;;;44.38;24.20;;;;;;;;;;5097465;28;20395;-78
2024/01/20 06:29:04;;;;;;;42.67;24.08;;;;;;;;;;5115729;28;20086;-78
2024/01/20 06:31:30;;;;;;;44.92;24.92;;;;;;;;;;5115582;28;20074;-78
2024/01/20 06:33:56;;;;;;;42.88;24.80;;;;;;;;;;5097673;28;20387;-78
2024/01/20 06:36:25;;;;;;;42.83;25.08;;;;;;;;;;5097565;28;20130;-78
2024/01/20 06:38:51;;;;;;;41.72;25.50;;;;;;;;;;5115359;28;20044;-78
2024/01/20 06:41:17;;;;;;;41.55;24.90;;;;;;;;;;5115402;28;20044;-78
2024/01/20 06:43:43;;;;;;;44.53;24.75;;;;;;;;;;5097374;28;20146;-78
2024/01/20 06:46:09;;;;;;;41.03;24.38;;;;;;;;;;5097279;28;20177;-78
2024/01/20 06:48:35;;;;;;;38.92;24.33;;;;;;;;;;5097291;28;20078;-79
2024/01/20 06:51:03;;;;;;;37.10;22.88;;;;;;;;;;5114828;28;20047;-79
2024/01/20 06:53:29;;;;;;;42.90;24.60;;;;;;;;;;5096819;28;20043;-78
2024/01/20 06:55:55;;;;;;;43.70;24.58;;;;;;;;;;5096727;28;20055;-78
2024/01/20 06:58:21;;;;;;;44.08;22.67;;;;;;;;;;5097346;28;20058;-79
2024/01/20 07:00:47;;;;;;;42.92;24.75;;;;;;;;;;5115050;28;20131;-78
2024/01/20 07:03:14;;;;;;;43.28;25.15;;;;;;;;;;5097180;28;20108;-76
2024/01/20 07:05:40;;;;;;;44.53;24.45;;;;;;;;;;5115011;28;20043;-78
2024/01/20 07:08:06;;;;;;;42.80;24.42;;;;;;;;;;5096920;28;20048;-78
2024/01/20 07:10:32;;;;;;;44.10;24.73;;;;;;;;;;5096930;28;20110;-78
2024/01/20 07:12:59;;;;;;;44.22;25.98;;;;;;;;;;5096733;28;20050;-79
2024/01/20 07:15:26;;;;;;;48.63;25.08;;;;;;;;;;5104411;27;20045;-79
2024/01/20 07:17:55;;;;;;;46.15;24.20;;;;;;;;;;5127154;27;20122;-79
2024/01/20 07:20:22;;;;;;;43.17;23.77;;;;;;;;;;5133699;27;20048;-86
2024/01/20 07:22:49;;;;;;;43.67;25.05;;;;;;;;;;5079842;28;20116;-80
2024/01/20 07:25:16;;;;;;;39.97;24.35;;;;;;;;;;5114709;28;20062;-79
2024/01/20 07:27:42;;;;;;;40.33;22.10;;;;;;;;;;5096522;28;20142;-79
2024/01/20 07:30:09;;;;;;;41.30;25.60;;;;;;;;;;5097084;28;20043;-80
2024/01/20 07:32:35;;;;;;;45.85;24.77;;;;;;;;;;5079867;28;20480;-82
2024/01/20 07:35:03;;;;;;;44.67;25.13;;;;;;;;;;5063129;28;20051;-82
2024/01/20 07:37:29;;;;;;;38.88;22.83;;;;;;;;;;5096421;28;20040;-83
2024/01/20 07:39:55;;;;;;;44.63;23.40;;;;;;;;;;5095753;28;20051;-79
2024/01/20 07:42:21;;;;;;;44.10;24.92;;;;;;;;;;5096434;28;20043;-82
2024/01/20 07:44:47;;;;;;;43.33;26.13;;;;;;;;;;5079580;28;20100;-82
2024/01/20 07:47:15;;;;;;;47.75;24.92;;;;;;;;;;5079346;28;20050;-85
2024/01/20 07:49:41;;;;;;;40.40;23.63;;;;;;;;;;5063135;28;20043;-81
2024/01/20 07:52:07;;;;;;;41.08;24.70;;;;;;;;;;5095954;28;20044;-81
2024/01/20 07:54:33;;;;;;;45.70;24.38;;;;;;;;;;5096040;28;20057;-80
2024/01/20 07:56:59;;;;;;;38.70;23.20;;;;;;;;;;5096220;28;20373;-80
2024/01/20 07:59:25;;;;;;;35.72;21.77;;;;;;;;;;5096033;28;20039;-80
2024/01/20 08:01:51;;;;;;;45.00;25.35;;;;;;;;;;5079695;28;20134;-82
2024/01/20 08:04:17;;;;;;;44.10;24.23;;;;;;;;;;5079322;28;20135;-80
2024/01/20 08:06:44;;;;;;;42.67;25.13;;;;;;;;;;5096191;28;20455;-81
2024/01/20 08:09:10;;;;;;;44.67;25.60;;;;;;;;;;5079471;28;20104;-80
2024/01/20 08:11:36;;;;;;;41.85;24.08;;;;;;;;;;5079453;28;20047;-80
2024/01/20 08:14:02;;;;;;;41.88;23.70;;;;;;;;;;5079331;28;20048;-80
2024/01/20 08:16:28;;;;;;;39.35;22.42;;;;;;;;;;5112231;28;20126;-78
2024/01/20 08:18:58;;;;;;;44.33;25.33;;;;;;;;;;5116297;28;20386;-79
2024/01/20 08:21:24;;;;;;;45.85;24.20;;;;;;;;;;5115834;28;20072;-79
2024/01/20 08:23:50;;;;;;;46.15;26.65;;;;;;;;;;5099521;28;20536;-78
2024/01/20 08:26:16;;;;;;;42.08;23.35;;;;;;;;;;5116389;28;20082;-79
2024/01/20 08:28:42;;;;;;;38.28;20.17;;;;;;;;;;5134544;28;20039;-78
2024/01/20 08:31:09;;;;;;;42.30;25.52;;;;;;;;;;5134408;28;20051;-79
2024/01/20 08:33:35;;;;;;;39.17;23.55;;;;;;;;;;5116353;28;20050;-79
2024/01/20 08:36:01;;;;;;;41.55;22.60;;;;;;;;;;5116582;28;20054;-79
2024/01/20 08:38:27;;;;;;;38.22;22.20;;;;;;;;;;5134751;28;20051;-79
2024/01/20 08:40:53;;;;;;;34.55;22.20;;;;;;;;;;5116633;28;20047;-79
2024/01/20 08:43:19;;;;;;;41.47;23.63;;;;;;;;;;5099188;28;20039;-79
2024/01/20 08:45:45;;;;;;;41.80;23.38;;;;;;;;;;5116394;28;20043;-79
2024/01/20 08:48:11;;;;;;;38.00;23.13;;;;;;;;;;5116273;28;20050;-79
2024/01/20 08:50:37;;;;;;;36.38;23.23;;;;;;;;;;5117267;27;20475;-79
2024/01/20 08:53:03;;;;;;;34.65;21.75;;;;;;;;;;5120120;27;20047;-79
2024/01/20 08:55:29;;;;;;;32.25;21.40;;;;;;;;;;5138397;27;20047;-79
2024/01/20 08:57:56;;;;;;;27.85;19.10;;;;;;;;;;5120066;27;20062;-79
2024/01/20 09:00:23;;;;;;;33.50;22.08;;;;;;;;;;5120335;27;20479;-79
2024/01/20 09:02:50;;;;;;;30.42;20.08;;;;;;;;;;5120204;27;20454;-79
2024/01/20 09:05:17;;;;;;;32.55;20.80;;;;;;;;;;5119833;27;20062;-79
2024/01/20 09:07:44;;;;;;;42.40;22.85;;;;;;;;;;5120077;27;20078;-79
2024/01/20 09:10:10;;;;;;;32.33;20.95;;;;;;;;;;5137884;27;20058;-79
2024/01/20 09:12:36;;;;;;;33.15;21.63;;;;;;;;;;5119646;27;20055;-79
2024/01/20 09:15:02;;;;;;;32.05;21.40;;;;;;;;;;5119357;27;20053;-79
2024/01/20 09:17:28;;;;;;;33.65;21.70;;;;;;;;;;5119572;27;20437;-79
2024/01/20 09:19:54;;;;;;;37.13;21.67;;;;;;;;;;5119480;27;20043;-79
2024/01/20 09:22:20;;;;;;;32.38;20.42;;;;;;;;;;5136725;27;20546;-79
2024/01/20 09:24:46;;;;;;;31.33;20.30;;;;;;;;;;5137552;27;20043;-79
2024/01/20 09:27:12;;;;;;;32.60;21.40;;;;;;;;;;5138395;27;20051;-79
2024/01/20 09:29:39;;;;;;;34.00;20.90;;;;;;;;;;5120195;27;20043;-79
2024/01/20 09:32:05;;;;;;;34.95;22.42;;;;;;;;;;5119127;27;20078;-79
2024/01/20 09:34:31;;;;;;;29.40;19.58;;;;;;;;;;5085487;27;20390;-78
2024/01/20 09:36:57;;;;;;;29.77;18.98;;;;;;;;;;5118973;27;20082;-79
2024/01/20 09:39:23;;;;;;;33.40;19.48;;;;;;;;;;5137057;27;20043;-79
2024/01/20 09:41:49;;;;;;;32.83;20.85;;;;;;;;;;5102121;27;20054;-79
2024/01/20 09:44:16;;;;;;;28.63;19.98;;;;;;;;;;5085239;27;20522;-79
2024/01/20 09:46:43;;;;;;;31.17;20.17;;;;;;;;;;5137062;27;20103;-79
2024/01/20 09:49:09;;;;;;;30.17;18.92;;;;;;;;;;5137063;27;20055;-78
2024/01/20 09:51:36;;;;;;;29.67;19.02;;;;;;;;;;5118376;27;20047;-79
2024/01/20 09:54:03;;;;;;;28.08;18.88;;;;;;;;;;5118743;27;20051;-79
2024/01/20 09:56:29;;;;;;;28.45;18.25;;;;;;;;;;5114924;28;20063;-79
2024/01/20 09:59:00;;;;;;;29.60;19.55;;;;;;;;;;5114772;28;20044;-79
2024/01/20 10:01:27;;;;;;;31.00;18.27;;;;;;;;;;5114953;28;20059;-79
2024/01/20 10:03:54;;;;;;;27.08;19.02;;;;;;;;;;5114580;28;20097;-79
2024/01/20 10:06:20;;;;;;;30.33;17.75;;;;;;;;;;5115388;28;20048;-79
2024/01/20 10:08:49;;;;;;;30.98;18.42;;;;;;;;;;5115078;28;20094;-79
2024/01/20 10:11:15;;;;;;;28.63;18.73;;;;;;;;;;5115100;28;20052;-79
2024/01/20 10:13:41;;;;;;;26.00;17.95;;;;;;;;;;5098761;28;20094;-79
2024/01/20 10:16:07;;;;;;;26.77;17.63;;;;;;;;;;5115799;28;20047;-79
2024/01/20 10:18:34;;;;;;;30.15;18.88;;;;;;;;;;5097943;28;20044;-79
2024/01/20 10:21:04;;;;;;;30.90;19.08;;;;;;;;;;5113718;28;20505;-79
2024/01/20 10:23:31;;;;;;;28.73;17.83;;;;;;;;;;5115925;27;20046;-79
2024/01/20 10:26:01;;;;;;;26.65;17.20;;;;;;;;;;5115248;28;20051;-79
2024/01/20 10:28:27;;;;;;;31.85;19.17;;;;;;;;;;5114704;28;20058;-78
2024/01/20 10:30:53;;;;;;;26.35;16.63;;;;;;;;;;5114651;28;20058;-78
2024/01/20 10:33:20;;;;;;;27.50;18.65;;;;;;;;;;5115596;28;20414;-79
2024/01/20 10:35:46;;;;;;;22.85;17.15;;;;;;;;;;5115635;28;20052;-78
2024/01/20 10:38:19;;;;;;;29.65;17.80;;;;;;;;;;5114405;28;20044;-80
2024/01/20 10:40:46;;;;;;;27.40;16.48;;;;;;;;;;5114396;28;20043;-80
2024/01/20 10:43:15;;;;;;;28.67;16.42;;;;;;;;;;5097324;28;20047;-80
2024/01/20 10:45:56;;;;;;;27.83;17.33;;;;;;;;;;5113763;28;20040;-80
2024/01/20 10:48:25;;;;;;;24.50;16.42;;;;;;;;;;5114744;28;20051;-80
2024/01/20 10:50:58;;;;;;;27.55;17.13;;;;;;;;;;5113834;28;20044;-80
2024/01/20 10:53:27;;;;;;;27.27;18.05;;;;;;;;;;5114294;28;20078;-80
2024/01/20 10:55:54;;;;;;;23.90;15.23;;;;;;;;;;5114031;28;20547;-80
2024/01/20 10:58:31;;;;;;;28.08;16.10;;;;;;;;;;5097930;28;20390;-80
2024/01/20 11:00:57;;;;;;;27.85;16.38;;;;;;;;;;5115482;28;20044;-80
2024/01/20 11:03:23;;;;;;;32.08;19.27;;;;;;;;;;5114156;28;20047;-80
2024/01/20 11:05:49;;;;;;;27.92;17.67;;;;;;;;;;5114870;28;20398;-80
2024/01/20 11:08:23;;;;;;;27.58;17.05;;;;;;;;;;5114904;28;20146;-80
2024/01/20 11:10:51;;;;;;;25.40;17.07;;;;;;;;;;5113847;28;20051;-80
2024/01/20 11:13:17;;;;;;;25.00;15.93;;;;;;;;;;5113398;28;20119;-80
2024/01/20 11:15:50;;;;;;;24.70;16.30;;;;;;;;;;5113496;28;20395;-80
2024/01/20 11:18:19;;;;;;;28.30;17.30;;;;;;;;;;5096945;28;20043;-80
2024/01/20 11:20:58;;;;;;;23.98;15.57;;;;;;;;;;5096380;28;20487;-80
2024/01/20 11:23:24;;;;;;;28.40;16.67;;;;;;;;;;5113573;28;20047;-80
2024/01/20 11:25:50;;;;;;;29.65;17.92;;;;;;;;;;5114446;28;20491;-80
2024/01/20 11:28:35;;;;;;;25.88;16.75;;;;;;;;;;5113150;28;20056;-80
2024/01/20 11:31:03;;;;;;;19.42;10.95;;;;;;;;;;5114498;28;20043;-80
2024/01/20 11:33:30;;;;;;;26.27;16.25;;;;;;;;;;5096694;28;20049;-80
2024/01/20 11:35:56;;;;;;;24.00;16.23;;;;;;;;;;5114538;28;20128;-79
2024/01/20 11:38:23;;;;;;;26.42;16.77;;;;;;;;;;5114449;28;20043;-79
2024/01/20 11:41:01;;;;;;;28.45;16.17;;;;;;;;;;5114453;28;20048;-79
2024/01/20 11:43:28;;;;;;;28.92;16.23;;;;;;;;;;5113453;28;20097;-79
2024/01/20 11:45:54;;;;;;;23.95;16.20;;;;;;;;;;5109573;28;20055;-80
2024/01/20 11:48:21;;;;;;;23.48;16.15;;;;;;;;;;5112119;28;20051;-80
2024/01/20 11:50:48;;;;;;;29.38;17.58;;;;;;;;;;5109382;28;20122;-80
2024/01/20 11:53:14;;;;;;;26.95;16.52;;;;;;;;;;5111378;28;20426;-80
2024/01/20 11:55:40;;;;;;;20.45;14.23;;;;;;;;;;5111794;28;20399;-80
2024/01/20 11:58:06;;;;;;;22.15;13.88;;;;;;;;;;5095575;28;20051;-81
2024/01/20 12:00:32;;;;;;;23.92;17.38;;;;;;;;;;5113849;28;20051;-80
2024/01/20 12:02:59;;;;;;;27.58;17.05;;;;;;;;;;5113210;28;20094;-80
2024/01/20 12:05:25;;;;;;;25.58;16.77;;;;;;;;;;5114130;28;20052;-80
2024/01/20 12:07:51;;;;;;;23.33;16.05;;;;;;;;;;5113178;28;20058;-81
2024/01/20 12:10:18;;;;;;;22.33;15.60;;;;;;;;;;5113448;28;20444;-80
2024/01/20 12:12:45;;;;;;;25.88;15.07;;;;;;;;;;5114210;28;20055;-80
2024/01/20 12:15:11;;;;;;;26.38;16.67;;;;;;;;;;5113157;28;20055;-80
2024/01/20 12:17:37;;;;;;;24.58;16.17;;;;;;;;;;5113895;28;20043;-79
2024/01/20 12:20:03;;;;;;;26.15;16.00;;;;;;;;;;5099440;28;20052;-79
2024/01/20 12:22:31;;;;;;;26.42;16.45;;;;;;;;;;5092398;28;20131;-79
2024/01/20 12:24:59;;;;;;;24.38;15.05;;;;;;;;;;5093234;28;20480;-80
2024/01/20 12:27:25;;;;;;;25.58;16.30;;;;;;;;;;5096747;28;20044;-79
2024/01/20 12:29:52;;;;;;;24.40;16.23;;;;;;;;;;5096705;28;20055;-80
2024/01/20 12:32:19;;;;;;;25.35;16.77;;;;;;;;;;5097362;28;20514;-80
2024/01/20 12:34:45;;;;;;;25.83;16.98;;;;;;;;;;5079738;28;20048;-80
2024/01/20 12:37:11;;;;;;;29.20;16.98;;;;;;;;;;5096105;28;20051;-80
2024/01/20 12:39:37;;;;;;;25.13;15.60;;;;;;;;;;5097091;28;20496;-80
2024/01/20 12:42:03;;;;;;;25.60;15.40;;;;;;;;;;5097412;28;20055;-81
2024/01/20 12:44:30;;;;;;;27.50;17.25;;;;;;;;;;5112722;27;20522;-81
2024/01/20 12:46:56;;;;;;;25.63;17.17;;;;;;;;;;5120336;27;20049;-80
2024/01/20 12:49:22;;;;;;;25.50;16.73;;;;;;;;;;5120446;27;20138;-80
2024/01/20 12:51:48;;;;;;;25.80;14.75;;;;;;;;;;5118863;27;20055;-80
2024/01/20 12:54:15;;;;;;;24.50;16.27;;;;;;;;;;5126093;27;20035;-80
2024/01/20 12:56:41;;;;;;;25.75;16.42;;;;;;;;;;5129731;27;20495;-80
2024/01/20 12:59:07;;;;;;;24.63;16.88;;;;;;;;;;5115999;28;20044;-81
2024/01/20 13:01:33;;;;;;;28.65;16.38;;;;;;;;;;5116303;28;20043;-80
2024/01/20 13:03:59;;;;;;;25.80;16.98;;;;;;;;;;5099149;28;20056;-80
2024/01/20 13:06:28;;;;;;;22.70;15.98;;;;;;;;;;5116301;28;20236;-80
2024/01/20 13:08:54;;;;;;;26.63;16.58;;;;;;;;;;5083345;28;20055;-80
2024/01/20 13:11:20;;;;;;;25.92;17.08;;;;;;;;;;5117253;28;20047;-80
2024/01/20 13:13:47;;;;;;;26.25;17.23;;;;;;;;;;5099179;28;20121;-80
2024/01/20 13:16:13;;;;;;;24.80;16.67;;;;;;;;;;5094860;28;20101;-80
2024/01/20 13:18:39;;;;;;;25.50;17.42;;;;;;;;;;5115083;28;20506;-80
2024/01/20 13:21:05;;;;;;;25.73;15.40;;;;;;;;;;5116551;28;20039;-80
2024/01/20 13:23:32;;;;;;;22.33;15.38;;;;;;;;;;5115957;28;20055;-80
2024/01/20 13:26:00;;;;;;;19.75;14.95;;;;;;;;;;5116142;27;20072;-80
2024/01/20 13:28:28;;;;;;;25.45;15.98;;;;;;;;;;5115795;28;20063;-80
2024/01/20 13:30:54;;;;;;;24.15;16.52;;;;;;;;;;5099049;28;20051;-80
2024/01/20 13:33:22;;;;;;;21.75;15.52;;;;;;;;;;5115678;28;20044;-80
2024/01/20 13:35:48;;;;;;;22.25;15.70;;;;;;;;;;5115376;28;20118;-80
2024/01/20 13:38:14;;;;;;;24.67;16.92;;;;;;;;;;5115302;28;20040;-80
2024/01/20 13:40:41;;;;;;;22.08;14.98;;;;;;;;;;5115347;28;20424;-80
2024/01/20 13:43:07;;;;;;;23.50;16.45;;;;;;;;;;5116629;28;20054;-80
2024/01/20 13:45:34;;;;;;;27.33;17.20;;;;;;;;;;5115539;28;20057;-80
2024/01/20 13:48:00;;;;;;;21.58;15.25;;;;;;;;;;5115448;28;20564;-80
2024/01/20 13:50:26;;;;;;;20.98;14.80;;;;;;;;;;5115524;28;20043;-80
2024/01/20 13:52:52;;;;;;;23.08;15.38;;;;;;;;;;5114963;28;20499;-80
2024/01/20 13:55:18;;;;;;;22.75;16.35;;;;;;;;;;5116312;27;20126;-80
2024/01/20 13:57:44;;;;;;;24.17;15.38;;;;;;;;;;5101778;27;20047;-80
2024/01/20 14:00:11;;;;;;;22.67;14.05;;;;;;;;;;5118761;27;20039;-80
2024/01/20 14:02:38;;;;;;;20.55;14.88;;;;;;;;;;5101951;27;20047;-80
2024/01/20 14:05:05;;;;;;;20.60;14.27;;;;;;;;;;5101600;27;20035;-80
2024/01/20 14:07:31;;;;;;;19.20;14.25;;;;;;;;;;5118550;27;20047;-80
2024/01/20 14:09:57;;;;;;;23.08;15.35;;;;;;;;;;5117886;27;20131;-80
2024/01/20 14:12:23;;;;;;;22.60;14.88;;;;;;;;;;5118212;27;20035;-80